sensor_id;sensor_type;location;lat;lon;timestamp;temperature;humidity
4399;DHT22;2213;49.720;7.296;2023-03-24T00:01:41;11.90;99.90
4399;DHT22;2213;49.720;7.296;2023-03-24T00:04:10;11.80;99.90
4399;DHT22;2213;49.720;7.296;2023-03-24T00:06:40;11.80;99.90
4399;DHT22;2213;49.720;7.296;2023-03-24T00:09:13;11.70;99.90
4399;DHT22;2213;49.720;7.296;2023-03-24T00:11:43;11.70;99.90
4399;DHT22;2213;49.720;7.296;2023-03-24T00:14:14;11.60;99.90
4399;DHT22;2213;49.720;7.296;2023-03-24T00:16:45;11.60;99.90
4399;DHT22;2213;49.720;7.296;2023-03-24T00:19:16;11.60;99.90
4399;DHT22;2213;49.720;7.296;2023-03-24T00:21:48;11.50;99.90
4399;DHT22;2213;49.720;7.296;2023-03-24T00:24:24;11.50;99.90
4399;DHT22;2213;49.720;7.296;2023-03-24T00:26:54;11.50;99.90
4399;DHT22;2213;49.720;7.296;2023-03-24T00:29:25;11.40;99.90
4399;DHT22;2213;49.720;7.296;2023-03-24T00:31:57;11.40;99.90
4399;DHT22;2213;49.720;7.296;2023-03-24T00:34:27;11.30;99.90
4399;DHT22;2213;49.720;7.296;2023-03-24T00:36:58;11.30;99.90
4399;DHT22;2213;49.720;7.296;2023-03-24T00:39:28;11.30;99.90
4399;DHT22;2213;49.720;7.296;2023-03-24T00:41:58;11.30;99.90
4399;DHT22;2213;49.720;7.296;2023-03-24T00:44:30;11.30;99.90
4399;DHT22;2213;49.720;7.296;2023-03-24T00:47:01;11.20;99.90
4399;DHT22;2213;49.720;7.296;2023-03-24T00:49:30;11.20;99.90
4399;DHT22;2213;49.720;7.296;2023-03-24T00:52:13;11.10;99.90
4399;DHT22;2213;49.720;7.296;2023-03-24T00:54:47;11.10;99.90
4399;DHT22;2213;49.720;7.296;2023-03-24T00:57:20;11.10;99.90
4399;DHT22;2213;49.720;7.296;2023-03-24T00:59:51;11.10;99.90
4399;DHT22;2213;49.720;7.296;2023-03-24T01:02:23;11.10;99.90
4399;DHT22;2213;49.720;7.296;2023-03-24T01:04:57;11.10;99.90
4399;DHT22;2213;49.720;7.296;2023-03-24T01:07:29;11.00;99.90
4399;DHT22;2213;49.720;7.296;2023-03-24T01:10:02;11.10;99.90
4399;DHT22;2213;49.720;7.296;2023-03-24T01:12:35;11.10;99.90
4399;DHT22;2213;49.720;7.296;2023-03-24T01:15:08;11.00;99.90
4399;DHT22;2213;49.720;7.296;2023-03-24T01:17:48;11.10;99.90
4399;DHT22;2213;49.720;7.296;2023-03-24T01:20:20;11.00;99.90
4399;DHT22;2213;49.720;7.296;2023-03-24T01:22:52;11.00;99.90
4399;DHT22;2213;49.720;7.296;2023-03-24T01:25:25;11.00;99.90
4399;DHT22;2213;49.720;7.296;2023-03-24T01:27:56;11.10;99.90
4399;DHT22;2213;49.720;7.296;2023-03-24T01:30:28;11.00;99.90
4399;DHT22;2213;49.720;7.296;2023-03-24T01:32:59;11.10;99.90
4399;DHT22;2213;49.720;7.296;2023-03-24T01:35:30;11.10;99.90
4399;DHT22;2213;49.720;7.296;2023-03-24T01:38:01;11.10;99.90
4399;DHT22;2213;49.720;7.296;2023-03-24T01:40:38;11.20;99.90
4399;DHT22;2213;49.720;7.296;2023-03-24T01:43:16;11.20;99.90
4399;DHT22;2213;49.720;7.296;2023-03-24T01:46:00;11.20;99.90
4399;DHT22;2213;49.720;7.296;2023-03-24T01:48:39;11.20;99.90
4399;DHT22;2213;49.720;7.296;2023-03-24T01:51:15;11.30;99.90
4399;DHT22;2213;49.720;7.296;2023-03-24T01:53:52;11.20;99.90
4399;DHT22;2213;49.720;7.296;2023-03-24T01:56:29;11.10;99.90
4399;DHT22;2213;49.720;7.296;2023-03-24T01:59:04;11.10;99.90
4399;DHT22;2213;49.720;7.296;2023-03-24T02:01:38;11.20;99.90
4399;DHT22;2213;49.720;7.296;2023-03-24T02:04:08;11.10;99.90
4399;DHT22;2213;49.720;7.296;2023-03-24T02:06:41;11.10;99.90
4399;DHT22;2213;49.720;7.296;2023-03-24T02:09:16;11.10;99.90
4399;DHT22;2213;49.720;7.296;2023-03-24T02:11:48;11.10;99.90
4399;DHT22;2213;49.720;7.296;2023-03-24T02:14:18;11.10;99.90
4399;DHT22;2213;49.720;7.296;2023-03-24T02:17:29;11.10;99.90
4399;DHT22;2213;49.720;7.296;2023-03-24T02:24:20;11.10;99.90
4399;DHT22;2213;49.720;7.296;2023-03-24T02:28:01;11.20;99.90
4399;DHT22;2213;49.720;7.296;2023-03-24T02:31:05;11.10;99.90
4399;DHT22;2213;49.720;7.296;2023-03-24T02:34:24;11.10;99.90
4399;DHT22;2213;49.720;7.296;2023-03-24T02:37:32;11.10;99.90
4399;DHT22;2213;49.720;7.296;2023-03-24T02:40:41;11.10;99.90
4399;DHT22;2213;49.720;7.296;2023-03-24T02:43:41;11.10;99.90
4399;DHT22;2213;49.720;7.296;2023-03-24T02:46:20;11.10;99.90
4399;DHT22;2213;49.720;7.296;2023-03-24T02:49:06;11.10;99.90
4399;DHT22;2213;49.720;7.296;2023-03-24T02:51:52;11.10;99.90
4399;DHT22;2213;49.720;7.296;2023-03-24T02:54:33;11.10;99.90
4399;DHT22;2213;49.720;7.296;2023-03-24T02:57:16;11.00;99.90
4399;DHT22;2213;49.720;7.296;2023-03-24T02:59:54;11.10;99.90
4399;DHT22;2213;49.720;7.296;2023-03-24T03:02:32;11.20;99.90
4399;DHT22;2213;49.720;7.296;2023-03-24T03:05:07;11.20;99.90
4399;DHT22;2213;49.720;7.296;2023-03-24T03:07:42;11.10;99.90
4399;DHT22;2213;49.720;7.296;2023-03-24T03:10:16;11.20;99.90
4399;DHT22;2213;49.720;7.296;2023-03-24T03:12:54;11.10;99.90
4399;DHT22;2213;49.720;7.296;2023-03-24T03:15:29;11.20;99.90
4399;DHT22;2213;49.720;7.296;2023-03-24T03:18:08;11.30;99.90
4399;DHT22;2213;49.720;7.296;2023-03-24T03:20:48;11.30;99.90
4399;DHT22;2213;49.720;7.296;2023-03-24T03:23:24;11.30;99.90
4399;DHT22;2213;49.720;7.296;2023-03-24T03:26:01;11.30;99.90
4399;DHT22;2213;49.720;7.296;2023-03-24T03:28:37;11.30;99.90
4399;DHT22;2213;49.720;7.296;2023-03-24T03:31:18;11.30;99.90
4399;DHT22;2213;49.720;7.296;2023-03-24T03:34:03;11.40;99.90
4399;DHT22;2213;49.720;7.296;2023-03-24T03:36:45;11.40;99.90
4399;DHT22;2213;49.720;7.296;2023-03-24T03:39:22;11.40;99.90
4399;DHT22;2213;49.720;7.296;2023-03-24T03:41:57;11.50;99.90
4399;DHT22;2213;49.720;7.296;2023-03-24T03:44:29;11.50;99.90
4399;DHT22;2213;49.720;7.296;2023-03-24T03:47:00;11.50;99.90
4399;DHT22;2213;49.720;7.296;2023-03-24T03:49:30;11.50;99.90
4399;DHT22;2213;49.720;7.296;2023-03-24T03:52:02;11.60;99.90
4399;DHT22;2213;49.720;7.296;2023-03-24T03:54:33;11.60;99.90
4399;DHT22;2213;49.720;7.296;2023-03-24T03:57:06;11.70;99.90
4399;DHT22;2213;49.720;7.296;2023-03-24T03:59:38;11.60;99.90
4399;DHT22;2213;49.720;7.296;2023-03-24T04:02:21;11.70;99.90
4399;DHT22;2213;49.720;7.296;2023-03-24T04:05:17;11.70;99.90
4399;DHT22;2213;49.720;7.296;2023-03-24T04:08:17;11.70;99.90
4399;DHT22;2213;49.720;7.296;2023-03-24T04:11:08;11.70;99.90
4399;DHT22;2213;49.720;7.296;2023-03-24T04:14:06;11.60;99.90
4399;DHT22;2213;49.720;7.296;2023-03-24T04:16:56;11.70;99.90
4399;DHT22;2213;49.720;7.296;2023-03-24T04:19:45;11.70;99.90
4399;DHT22;2213;49.720;7.296;2023-03-24T04:22:38;11.80;99.90
4399;DHT22;2213;49.720;7.296;2023-03-24T04:25:28;11.80;99.90
4399;DHT22;2213;49.720;7.296;2023-03-24T04:28:10;11.80;99.90
4399;DHT22;2213;49.720;7.296;2023-03-24T04:30:50;11.80;99.90
4399;DHT22;2213;49.720;7.296;2023-03-24T04:33:34;11.80;99.90
4399;DHT22;2213;49.720;7.296;2023-03-24T04:36:15;11.80;99.90
4399;DHT22;2213;49.720;7.296;2023-03-24T04:38:55;11.70;99.90
4399;DHT22;2213;49.720;7.296;2023-03-24T04:41:28;11.70;99.90
4399;DHT22;2213;49.720;7.296;2023-03-24T04:44:00;11.70;99.90
4399;DHT22;2213;49.720;7.296;2023-03-24T04:46:28;11.80;99.90
4399;DHT22;2213;49.720;7.296;2023-03-24T04:49:02;11.80;99.90
4399;DHT22;2213;49.720;7.296;2023-03-24T04:51:32;11.80;99.90
4399;DHT22;2213;49.720;7.296;2023-03-24T04:54:04;11.80;99.90
4399;DHT22;2213;49.720;7.296;2023-03-24T04:56:38;11.90;99.90
4399;DHT22;2213;49.720;7.296;2023-03-24T04:59:12;11.80;99.90
4399;DHT22;2213;49.720;7.296;2023-03-24T05:01:44;11.80;99.90
4399;DHT22;2213;49.720;7.296;2023-03-24T05:04:18;11.80;99.90
4399;DHT22;2213;49.720;7.296;2023-03-24T05:06:48;11.90;99.90
4399;DHT22;2213;49.720;7.296;2023-03-24T05:09:19;11.80;99.90
4399;DHT22;2213;49.720;7.296;2023-03-24T05:11:49;11.80;99.90
4399;DHT22;2213;49.720;7.296;2023-03-24T05:14:20;11.80;99.90
4399;DHT22;2213;49.720;7.296;2023-03-24T05:16:50;11.80;99.90
4399;DHT22;2213;49.720;7.296;2023-03-24T05:19:21;11.80;99.90
4399;DHT22;2213;49.720;7.296;2023-03-24T05:21:52;11.90;99.90
4399;DHT22;2213;49.720;7.296;2023-03-24T05:24:21;11.80;99.90
4399;DHT22;2213;49.720;7.296;2023-03-24T05:26:51;11.80;99.90
4399;DHT22;2213;49.720;7.296;2023-03-24T05:29:21;11.90;99.90
4399;DHT22;2213;49.720;7.296;2023-03-24T05:31:51;11.80;99.90
4399;DHT22;2213;49.720;7.296;2023-03-24T05:34:21;11.90;99.90
4399;DHT22;2213;49.720;7.296;2023-03-24T05:36:52;11.80;99.90
4399;DHT22;2213;49.720;7.296;2023-03-24T05:39:22;11.90;99.90
4399;DHT22;2213;49.720;7.296;2023-03-24T05:41:52;11.90;99.90
4399;DHT22;2213;49.720;7.296;2023-03-24T05:44:23;12.00;99.90
4399;DHT22;2213;49.720;7.296;2023-03-24T05:46:54;11.90;99.90
4399;DHT22;2213;49.720;7.296;2023-03-24T05:49:24;12.00;99.90
4399;DHT22;2213;49.720;7.296;2023-03-24T05:51:52;12.00;99.90
4399;DHT22;2213;49.720;7.296;2023-03-24T05:54:23;12.00;99.90
4399;DHT22;2213;49.720;7.296;2023-03-24T05:56:53;11.90;99.90
4399;DHT22;2213;49.720;7.296;2023-03-24T05:59:24;11.90;99.90
4399;DHT22;2213;49.720;7.296;2023-03-24T06:01:53;11.90;99.90
4399;DHT22;2213;49.720;7.296;2023-03-24T06:04:25;11.80;99.90
4399;DHT22;2213;49.720;7.296;2023-03-24T06:06:57;11.90;99.90
4399;DHT22;2213;49.720;7.296;2023-03-24T06:09:29;11.80;99.90
4399;DHT22;2213;49.720;7.296;2023-03-24T06:12:05;11.80;99.90
4399;DHT22;2213;49.720;7.296;2023-03-24T06:14:36;11.90;99.90
4399;DHT22;2213;49.720;7.296;2023-03-24T06:17:07;11.90;99.90
4399;DHT22;2213;49.720;7.296;2023-03-24T06:19:43;12.00;99.90
4399;DHT22;2213;49.720;7.296;2023-03-24T06:22:16;11.90;99.90
4399;DHT22;2213;49.720;7.296;2023-03-24T06:24:46;11.80;99.90
4399;DHT22;2213;49.720;7.296;2023-03-24T06:27:21;11.90;99.90
4399;DHT22;2213;49.720;7.296;2023-03-24T06:29:53;11.90;99.90
4399;DHT22;2213;49.720;7.296;2023-03-24T06:32:23;12.00;99.90
4399;DHT22;2213;49.720;7.296;2023-03-24T06:34:55;11.90;99.90
4399;DHT22;2213;49.720;7.296;2023-03-24T06:37:25;12.00;99.90
4399;DHT22;2213;49.720;7.296;2023-03-24T06:39:56;12.00;99.90
4399;DHT22;2213;49.720;7.296;2023-03-24T06:42:26;12.00;99.90
4399;DHT22;2213;49.720;7.296;2023-03-24T06:44:56;11.90;99.90
4399;DHT22;2213;49.720;7.296;2023-03-24T06:47:27;11.80;99.90
4399;DHT22;2213;49.720;7.296;2023-03-24T06:49:59;11.90;99.90
4399;DHT22;2213;49.720;7.296;2023-03-24T06:52:28;11.90;99.90
4399;DHT22;2213;49.720;7.296;2023-03-24T06:54:58;11.90;99.90
4399;DHT22;2213;49.720;7.296;2023-03-24T06:57:28;12.00;99.90
4399;DHT22;2213;49.720;7.296;2023-03-24T06:59:59;12.00;99.90
4399;DHT22;2213;49.720;7.296;2023-03-24T07:02:36;12.10;99.90
4399;DHT22;2213;49.720;7.296;2023-03-24T07:05:08;12.00;99.90
4399;DHT22;2213;49.720;7.296;2023-03-24T07:07:39;12.00;99.90
4399;DHT22;2213;49.720;7.296;2023-03-24T07:10:13;12.10;99.90
4399;DHT22;2213;49.720;7.296;2023-03-24T07:12:44;12.10;99.90
4399;DHT22;2213;49.720;7.296;2023-03-24T07:15:14;12.10;99.90
4399;DHT22;2213;49.720;7.296;2023-03-24T07:17:46;12.10;99.90
4399;DHT22;2213;49.720;7.296;2023-03-24T07:20:20;12.10;99.90
4399;DHT22;2213;49.720;7.296;2023-03-24T07:22:54;12.10;99.90
4399;DHT22;2213;49.720;7.296;2023-03-24T07:25:24;12.00;99.90
4399;DHT22;2213;49.720;7.296;2023-03-24T07:27:54;12.10;99.90
4399;DHT22;2213;49.720;7.296;2023-03-24T07:30:24;12.00;99.90
4399;DHT22;2213;49.720;7.296;2023-03-24T07:33:07;12.00;99.90
4399;DHT22;2213;49.720;7.296;2023-03-24T07:35:40;12.10;99.90
4399;DHT22;2213;49.720;7.296;2023-03-24T07:38:10;12.00;99.90
4399;DHT22;2213;49.720;7.296;2023-03-24T07:40:40;12.00;99.90
4399;DHT22;2213;49.720;7.296;2023-03-24T07:43:11;12.10;99.90
4399;DHT22;2213;49.720;7.296;2023-03-24T07:45:43;12.10;99.90
4399;DHT22;2213;49.720;7.296;2023-03-24T07:48:13;12.00;99.90
4399;DHT22;2213;49.720;7.296;2023-03-24T07:50:45;12.10;99.90
4399;DHT22;2213;49.720;7.296;2023-03-24T07:53:16;12.10;99.90
4399;DHT22;2213;49.720;7.296;2023-03-24T07:55:47;12.00;99.90
4399;DHT22;2213;49.720;7.296;2023-03-24T07:58:17;12.10;99.90
4399;DHT22;2213;49.720;7.296;2023-03-24T08:00:47;12.00;99.90
4399;DHT22;2213;49.720;7.296;2023-03-24T08:03:18;11.90;99.90
4399;DHT22;2213;49.720;7.296;2023-03-24T08:05:56;11.90;99.90
4399;DHT22;2213;49.720;7.296;2023-03-24T08:08:26;11.70;99.90
4399;DHT22;2213;49.720;7.296;2023-03-24T08:10:58;11.80;99.90
4399;DHT22;2213;49.720;7.296;2023-03-24T08:13:27;11.70;99.90
4399;DHT22;2213;49.720;7.296;2023-03-24T08:15:56;11.60;99.90
4399;DHT22;2213;49.720;7.296;2023-03-24T08:18:27;11.60;99.90
4399;DHT22;2213;49.720;7.296;2023-03-24T08:21:01;11.60;99.90
4399;DHT22;2213;49.720;7.296;2023-03-24T08:23:32;11.50;99.90
4399;DHT22;2213;49.720;7.296;2023-03-24T08:26:03;11.50;99.90
4399;DHT22;2213;49.720;7.296;2023-03-24T08:28:34;11.50;99.90
4399;DHT22;2213;49.720;7.296;2023-03-24T08:31:03;11.50;99.90
4399;DHT22;2213;49.720;7.296;2023-03-24T08:33:34;11.50;99.90
4399;DHT22;2213;49.720;7.296;2023-03-24T08:36:06;11.50;99.90
4399;DHT22;2213;49.720;7.296;2023-03-24T08:38:37;11.50;99.90
4399;DHT22;2213;49.720;7.296;2023-03-24T08:41:08;11.50;99.90
4399;DHT22;2213;49.720;7.296;2023-03-24T08:43:39;11.50;99.90
4399;DHT22;2213;49.720;7.296;2023-03-24T08:46:09;11.50;99.90
4399;DHT22;2213;49.720;7.296;2023-03-24T08:48:40;11.40;99.90
4399;DHT22;2213;49.720;7.296;2023-03-24T08:51:14;11.50;99.90
4399;DHT22;2213;49.720;7.296;2023-03-24T08:53:44;11.50;99.90
4399;DHT22;2213;49.720;7.296;2023-03-24T08:56:13;11.50;99.90
4399;DHT22;2213;49.720;7.296;2023-03-24T08:58:43;11.50;99.90
4399;DHT22;2213;49.720;7.296;2023-03-24T09:01:12;11.50;99.90
4399;DHT22;2213;49.720;7.296;2023-03-24T09:03:43;11.50;99.90
4399;DHT22;2213;49.720;7.296;2023-03-24T09:06:15;11.50;99.90
4399;DHT22;2213;49.720;7.296;2023-03-24T09:08:46;11.50;99.90
4399;DHT22;2213;49.720;7.296;2023-03-24T09:11:18;11.50;99.90
4399;DHT22;2213;49.720;7.296;2023-03-24T09:13:49;11.50;99.90
4399;DHT22;2213;49.720;7.296;2023-03-24T09:16:19;11.50;99.90
4399;DHT22;2213;49.720;7.296;2023-03-24T09:18:49;11.60;99.90
4399;DHT22;2213;49.720;7.296;2023-03-24T09:21:21;11.50;99.90
4399;DHT22;2213;49.720;7.296;2023-03-24T09:23:52;11.60;99.90
4399;DHT22;2213;49.720;7.296;2023-03-24T09:26:21;11.50;99.90
4399;DHT22;2213;49.720;7.296;2023-03-24T09:28:52;11.60;99.90
4399;DHT22;2213;49.720;7.296;2023-03-24T09:31:22;11.60;99.90
4399;DHT22;2213;49.720;7.296;2023-03-24T09:33:53;11.40;99.90
4399;DHT22;2213;49.720;7.296;2023-03-24T09:36:25;11.40;99.90
4399;DHT22;2213;49.720;7.296;2023-03-24T09:38:57;11.50;99.90
4399;DHT22;2213;49.720;7.296;2023-03-24T09:41:29;11.50;99.90
4399;DHT22;2213;49.720;7.296;2023-03-24T09:44:04;11.50;99.90
4399;DHT22;2213;49.720;7.296;2023-03-24T09:46:50;11.60;99.90
4399;DHT22;2213;49.720;7.296;2023-03-24T09:49:30;11.50;99.90
4399;DHT22;2213;49.720;7.296;2023-03-24T09:52:09;11.60;99.90
4399;DHT22;2213;49.720;7.296;2023-03-24T09:54:45;11.60;99.90
4399;DHT22;2213;49.720;7.296;2023-03-24T09:57:22;11.60;99.90
4399;DHT22;2213;49.720;7.296;2023-03-24T09:59:55;11.60;99.90
4399;DHT22;2213;49.720;7.296;2023-03-24T10:02:27;11.60;99.90
4399;DHT22;2213;49.720;7.296;2023-03-24T10:04:59;11.70;99.90
4399;DHT22;2213;49.720;7.296;2023-03-24T10:07:35;11.60;99.90
4399;DHT22;2213;49.720;7.296;2023-03-24T10:10:20;11.70;99.90
4399;DHT22;2213;49.720;7.296;2023-03-24T10:13:01;11.80;99.90
4399;DHT22;2213;49.720;7.296;2023-03-24T10:15:40;11.70;99.90
4399;DHT22;2213;49.720;7.296;2023-03-24T10:18:29;11.70;99.90
4399;DHT22;2213;49.720;7.296;2023-03-24T10:21:10;11.80;99.90
4399;DHT22;2213;49.720;7.296;2023-03-24T10:23:53;11.80;99.90
4399;DHT22;2213;49.720;7.296;2023-03-24T10:26:37;11.90;99.90
4399;DHT22;2213;49.720;7.296;2023-03-24T10:29:22;11.90;99.90
4399;DHT22;2213;49.720;7.296;2023-03-24T10:31:59;11.90;99.90
4399;DHT22;2213;49.720;7.296;2023-03-24T10:34:33;12.00;99.90
4399;DHT22;2213;49.720;7.296;2023-03-24T10:37:04;12.10;99.90
4399;DHT22;2213;49.720;7.296;2023-03-24T10:39:36;12.10;99.90
4399;DHT22;2213;49.720;7.296;2023-03-24T10:42:16;12.10;99.90
4399;DHT22;2213;49.720;7.296;2023-03-24T10:44:50;12.10;99.90
4399;DHT22;2213;49.720;7.296;2023-03-24T10:47:24;12.00;99.90
4399;DHT22;2213;49.720;7.296;2023-03-24T10:49:57;12.10;99.90
4399;DHT22;2213;49.720;7.296;2023-03-24T10:52:42;12.20;99.90
4399;DHT22;2213;49.720;7.296;2023-03-24T10:55:17;12.20;99.90
4399;DHT22;2213;49.720;7.296;2023-03-24T10:57:52;12.10;99.90
4399;DHT22;2213;49.720;7.296;2023-03-24T11:00:25;12.20;99.90
4399;DHT22;2213;49.720;7.296;2023-03-24T11:02:59;12.20;99.90
4399;DHT22;2213;49.720;7.296;2023-03-24T11:05:32;12.20;99.90
4399;DHT22;2213;49.720;7.296;2023-03-24T11:08:22;12.30;99.90
4399;DHT22;2213;49.720;7.296;2023-03-24T11:10:56;12.20;99.90
4399;DHT22;2213;49.720;7.296;2023-03-24T11:13:31;12.30;99.90
4399;DHT22;2213;49.720;7.296;2023-03-24T11:16:09;12.30;99.90
4399;DHT22;2213;49.720;7.296;2023-03-24T11:18:54;12.40;99.90
4399;DHT22;2213;49.720;7.296;2023-03-24T11:21:26;12.50;99.90
4399;DHT22;2213;49.720;7.296;2023-03-24T11:23:58;12.60;99.90
4399;DHT22;2213;49.720;7.296;2023-03-24T11:26:34;12.60;99.90
4399;DHT22;2213;49.720;7.296;2023-03-24T11:29:07;12.30;99.90
4399;DHT22;2213;49.720;7.296;2023-03-24T11:31:50;12.60;99.90
4399;DHT22;2213;49.720;7.296;2023-03-24T11:34:27;12.60;99.90
4399;DHT22;2213;49.720;7.296;2023-03-24T11:37:01;12.70;99.90
4399;DHT22;2213;49.720;7.296;2023-03-24T11:39:35;12.70;99.90
4399;DHT22;2213;49.720;7.296;2023-03-24T11:42:14;12.80;99.90
4399;DHT22;2213;49.720;7.296;2023-03-24T11:44:47;12.80;99.90
4399;DHT22;2213;49.720;7.296;2023-03-24T11:47:22;12.90;99.90
4399;DHT22;2213;49.720;7.296;2023-03-24T11:50:13;12.90;99.90
4399;DHT22;2213;49.720;7.296;2023-03-24T11:52:49;13.00;99.90
4399;DHT22;2213;49.720;7.296;2023-03-24T11:55:28;13.00;99.90
4399;DHT22;2213;49.720;7.296;2023-03-24T11:58:11;13.00;99.90
4399;DHT22;2213;49.720;7.296;2023-03-24T12:00:52;13.10;99.90
4399;DHT22;2213;49.720;7.296;2023-03-24T12:03:47;13.10;99.90
4399;DHT22;2213;49.720;7.296;2023-03-24T12:06:34;13.10;99.90
4399;DHT22;2213;49.720;7.296;2023-03-24T12:09:20;13.10;99.90
4399;DHT22;2213;49.720;7.296;2023-03-24T12:12:14;13.10;99.90
4399;DHT22;2213;49.720;7.296;2023-03-24T12:15:12;13.10;99.90
4399;DHT22;2213;49.720;7.296;2023-03-24T12:18:06;13.10;99.90
4399;DHT22;2213;49.720;7.296;2023-03-24T12:20:53;13.20;99.90
4399;DHT22;2213;49.720;7.296;2023-03-24T12:23:34;13.20;99.90
4399;DHT22;2213;49.720;7.296;2023-03-24T12:26:18;13.20;99.90
4399;DHT22;2213;49.720;7.296;2023-03-24T12:28:57;13.30;99.90
4399;DHT22;2213;49.720;7.296;2023-03-24T12:32:09;13.30;99.90
4399;DHT22;2213;49.720;7.296;2023-03-24T12:35:02;13.40;99.90
4399;DHT22;2213;49.720;7.296;2023-03-24T12:37:47;13.30;99.90
4399;DHT22;2213;49.720;7.296;2023-03-24T12:40:43;13.40;99.90
4399;DHT22;2213;49.720;7.296;2023-03-24T12:43:36;13.50;99.90
4399;DHT22;2213;49.720;7.296;2023-03-24T12:46:29;13.40;99.90
4399;DHT22;2213;49.720;7.296;2023-03-24T12:49:41;13.40;99.90
4399;DHT22;2213;49.720;7.296;2023-03-24T12:52:49;13.40;99.90
4399;DHT22;2213;49.720;7.296;2023-03-24T12:55:38;13.30;99.90
4399;DHT22;2213;49.720;7.296;2023-03-24T12:58:17;13.20;99.90
4399;DHT22;2213;49.720;7.296;2023-03-24T13:00:58;13.30;99.90
4399;DHT22;2213;49.720;7.296;2023-03-24T13:03:38;13.40;99.90
4399;DHT22;2213;49.720;7.296;2023-03-24T13:06:16;13.40;99.90
4399;DHT22;2213;49.720;7.296;2023-03-24T13:09:01;13.40;99.90
4399;DHT22;2213;49.720;7.296;2023-03-24T13:11:40;13.50;99.90
4399;DHT22;2213;49.720;7.296;2023-03-24T13:14:21;13.60;99.90
4399;DHT22;2213;49.720;7.296;2023-03-24T13:16:59;13.70;99.90
4399;DHT22;2213;49.720;7.296;2023-03-24T13:19:34;13.70;99.90
4399;DHT22;2213;49.720;7.296;2023-03-24T13:22:14;13.80;99.90
4399;DHT22;2213;49.720;7.296;2023-03-24T13:24:45;13.80;99.90
4399;DHT22;2213;49.720;7.296;2023-03-24T13:27:20;13.90;99.90
4399;DHT22;2213;49.720;7.296;2023-03-24T13:30:22;14.00;99.90
4399;DHT22;2213;49.720;7.296;2023-03-24T13:33:01;14.00;99.90
4399;DHT22;2213;49.720;7.296;2023-03-24T13:35:48;14.00;99.90
4399;DHT22;2213;49.720;7.296;2023-03-24T13:38:33;14.10;99.90
4399;DHT22;2213;49.720;7.296;2023-03-24T13:41:05;14.20;99.90
4399;DHT22;2213;49.720;7.296;2023-03-24T13:43:46;14.20;99.90
4399;DHT22;2213;49.720;7.296;2023-03-24T13:46:17;14.30;99.90
4399;DHT22;2213;49.720;7.296;2023-03-24T13:48:50;14.40;99.90
4399;DHT22;2213;49.720;7.296;2023-03-24T13:51:25;14.30;99.90
4399;DHT22;2213;49.720;7.296;2023-03-24T13:53:59;14.50;99.90
4399;DHT22;2213;49.720;7.296;2023-03-24T13:56:35;14.50;99.90
4399;DHT22;2213;49.720;7.296;2023-03-24T13:59:28;14.60;99.90
4399;DHT22;2213;49.720;7.296;2023-03-24T14:02:20;14.70;99.90
4399;DHT22;2213;49.720;7.296;2023-03-24T14:05:02;14.90;99.90
4399;DHT22;2213;49.720;7.296;2023-03-24T14:07:47;15.20;99.90
4399;DHT22;2213;49.720;7.296;2023-03-24T14:10:40;15.50;99.90
4399;DHT22;2213;49.720;7.296;2023-03-24T14:13:22;15.20;99.90
4399;DHT22;2213;49.720;7.296;2023-03-24T14:16:34;15.50;99.90
4399;DHT22;2213;49.720;7.296;2023-03-24T14:19:25;15.40;99.90
4399;DHT22;2213;49.720;7.296;2023-03-24T14:22:09;15.50;99.90
4399;DHT22;2213;49.720;7.296;2023-03-24T14:24:42;15.50;99.30
4399;DHT22;2213;49.720;7.296;2023-03-24T14:27:34;15.30;99.60
4399;DHT22;2213;49.720;7.296;2023-03-24T14:30:18;15.30;99.70
4399;DHT22;2213;49.720;7.296;2023-03-24T14:32:51;15.30;98.70
4399;DHT22;2213;49.720;7.296;2023-03-24T14:35:32;15.10;98.00
4399;DHT22;2213;49.720;7.296;2023-03-24T14:38:04;15.20;99.00
4399;DHT22;2213;49.720;7.296;2023-03-24T14:40:51;15.20;98.70
4399;DHT22;2213;49.720;7.296;2023-03-24T14:43:29;15.00;98.20
4399;DHT22;2213;49.720;7.296;2023-03-24T14:46:35;15.20;98.30
4399;DHT22;2213;49.720;7.296;2023-03-24T14:49:18;15.10;98.40
4399;DHT22;2213;49.720;7.296;2023-03-24T14:51:57;15.20;98.60
4399;DHT22;2213;49.720;7.296;2023-03-24T14:54:36;15.30;98.70
4399;DHT22;2213;49.720;7.296;2023-03-24T14:57:12;15.40;98.20
4399;DHT22;2213;49.720;7.296;2023-03-24T14:59:50;15.30;97.70
4399;DHT22;2213;49.720;7.296;2023-03-24T15:02:31;15.40;98.10
4399;DHT22;2213;49.720;7.296;2023-03-24T15:05:21;15.40;97.60
4399;DHT22;2213;49.720;7.296;2023-03-24T15:08:02;15.40;97.70
4399;DHT22;2213;49.720;7.296;2023-03-24T15:10:41;15.30;96.90
4399;DHT22;2213;49.720;7.296;2023-03-24T15:13:38;15.50;97.60
4399;DHT22;2213;49.720;7.296;2023-03-24T15:16:19;15.40;96.80
4399;DHT22;2213;49.720;7.296;2023-03-24T15:18:52;15.40;97.00
4399;DHT22;2213;49.720;7.296;2023-03-24T15:21:32;15.50;97.60
4399;DHT22;2213;49.720;7.296;2023-03-24T15:24:24;15.30;96.90
4399;DHT22;2213;49.720;7.296;2023-03-24T15:27:21;15.40;97.50
4399;DHT22;2213;49.720;7.296;2023-03-24T15:29:55;15.60;97.40
4399;DHT22;2213;49.720;7.296;2023-03-24T15:32:28;15.50;97.30
4399;DHT22;2213;49.720;7.296;2023-03-24T15:35:06;15.60;97.70
4399;DHT22;2213;49.720;7.296;2023-03-24T15:37:41;15.50;97.10
4399;DHT22;2213;49.720;7.296;2023-03-24T15:40:35;15.50;97.30
4399;DHT22;2213;49.720;7.296;2023-03-24T15:43:17;15.50;97.60
4399;DHT22;2213;49.720;7.296;2023-03-24T15:45:50;15.50;97.20
4399;DHT22;2213;49.720;7.296;2023-03-24T15:48:39;15.60;97.40
4399;DHT22;2213;49.720;7.296;2023-03-24T15:51:08;15.60;97.50
4399;DHT22;2213;49.720;7.296;2023-03-24T15:53:40;15.70;97.80
4399;DHT22;2213;49.720;7.296;2023-03-24T15:56:19;15.70;97.40
4399;DHT22;2213;49.720;7.296;2023-03-24T15:58:54;15.70;98.10
4399;DHT22;2213;49.720;7.296;2023-03-24T16:01:27;15.70;98.20
4399;DHT22;2213;49.720;7.296;2023-03-24T16:04:06;15.80;98.30
4399;DHT22;2213;49.720;7.296;2023-03-24T16:06:44;15.70;98.20
4399;DHT22;2213;49.720;7.296;2023-03-24T16:09:20;15.40;98.10
4399;DHT22;2213;49.720;7.296;2023-03-24T16:11:54;15.30;98.30
4399;DHT22;2213;49.720;7.296;2023-03-24T16:14:25;15.40;99.20
4399;DHT22;2213;49.720;7.296;2023-03-24T16:16:57;15.30;99.10
4399;DHT22;2213;49.720;7.296;2023-03-24T16:19:29;15.20;99.00
4399;DHT22;2213;49.720;7.296;2023-03-24T16:21:59;15.20;99.20
4399;DHT22;2213;49.720;7.296;2023-03-24T16:24:30;15.20;99.50
4399;DHT22;2213;49.720;7.296;2023-03-24T16:27:00;15.10;99.60
4399;DHT22;2213;49.720;7.296;2023-03-24T16:29:29;15.00;99.60
4399;DHT22;2213;49.720;7.296;2023-03-24T16:31:59;14.90;99.70
4399;DHT22;2213;49.720;7.296;2023-03-24T16:34:31;14.90;99.90
4399;DHT22;2213;49.720;7.296;2023-03-24T16:37:03;14.80;99.90
4399;DHT22;2213;49.720;7.296;2023-03-24T16:39:33;14.70;99.90
4399;DHT22;2213;49.720;7.296;2023-03-24T16:42:02;14.60;99.90
4399;DHT22;2213;49.720;7.296;2023-03-24T16:44:33;14.60;99.90
4399;DHT22;2213;49.720;7.296;2023-03-24T16:47:03;14.50;99.90
4399;DHT22;2213;49.720;7.296;2023-03-24T16:49:38;14.40;99.90
4399;DHT22;2213;49.720;7.296;2023-03-24T16:52:10;14.10;99.90
4399;DHT22;2213;49.720;7.296;2023-03-24T16:54:43;14.10;99.90
4399;DHT22;2213;49.720;7.296;2023-03-24T16:57:12;14.10;99.90
4399;DHT22;2213;49.720;7.296;2023-03-24T16:59:43;14.10;99.90
4399;DHT22;2213;49.720;7.296;2023-03-24T17:02:13;14.00;99.90
4399;DHT22;2213;49.720;7.296;2023-03-24T17:04:44;14.00;99.90
4399;DHT22;2213;49.720;7.296;2023-03-24T17:07:15;14.00;99.90
4399;DHT22;2213;49.720;7.296;2023-03-24T17:09:45;13.90;99.90